Saint Marys, Ohio
Current Conditions -  °F | °C
As of 11:34 AM on Saturday 25 Oct 2014 (Local Time) from KAXV Reporting Station
Clear Clear  
Wind Chill: 63°   Ceiling: Unl
Heat Index: 63°   Visibility: 10mi
Dew Point: 55°   Wind: 13mph
Humidity: 77%   Direction: 240°WSW
Pressure: 29.93"   Gusts: NA
Location:  40.54°N, 84.39°W
Report Text: KAXV 251534Z AUTO 24011KT 10SM CLR 17/13 A2993 RMK AO2
Loading
Personal Weather Stations






























Interactive Weather Map
Tropical Storm Tracking
New forecast layout! Learn more

10-Day Weather Forecast

Advertisements
Track Severe Weather on mobile